An Run Da 2 — BHNX — position and weather

sailwx.info

Track history (hours):
 
Tides and Currents Weather Stations Pressure Air Temp Water Temp Dewpoint Dewpoint Depression Visibility Wind Speed Wind Dir Waves Ship Positions

An Run Da 2

Last reported at 2014-Jul-22 18:30 UTC. Time now 2014-Jul-22 19:35 UTC.
Position N 31°06' E 121°28'.

Length 147 m; draft 8.5 m.

Type: Cargo ship. MMSI: 413360230.

Date/timePositionNaut miles runAvg speedWind from/ knotsBaromVisibWave heightAir tempDewpointWater temp
2014-Jul-22 18:30N 31°06' E 121°28'2 1.9
2014-Jul-22 17:33N 31°07' E 121°28'4 4.3
2014-Jul-22 16:32N 31°12' E 121°29'5 5.2
2014-Jul-22 15:33N 31°16' E 121°33'6 5.6
2014-Jul-22 14:33N 31°21' E 121°31'3 3.1
2014-Jul-22 13:33N 31°24' E 121°33'6 6.3
2014-Jul-22 12:33N 31°21' E 121°40'8 8.4
2014-Jul-22 11:33N 31°17' E 121°49'333 6.7
2014-Jul-20 10:16N 36°47' E 122°45'811.0
2014-Jul-20 09:33N 36°54' E 122°45'1111.0
2014-Jul-20 08:33N 37°05' E 122°46'28 9.3
2014-Jul-20 05:31N 37°33' E 122°38'9 9.4
2014-Jul-20 04:33N 37°36' E 122°27'10 9.6
2014-Jul-20 03:33N 37°39' E 122°16'10 9.8
2014-Jul-20 02:33N 37°42' E 122°04'1010.1
2014-Jul-20 01:33N 37°45' E 121°52'1010.2
2014-Jul-20 00:33N 37°48' E 121°40'1010.0
2014-Jul-19 23:33N 37°51' E 121°28'  
2014-Jul-17 09:29N 38°26' E 118°11'7 0.2
2014-Jul-15 10:10N 38°29' E 118°20'146 4.4
2014-Jul-14 01:15N 37°54' E 121°20'811.8
2014-Jul-14 00:33N 37°52' E 121°30'2411.7
2014-Jul-13 22:31N 37°46' E 121°59'1111.9
2014-Jul-13 21:33N 37°43' E 122°12'1211.7
2014-Jul-13 20:33N 37°40' E 122°27'1110.7
2014-Jul-13 19:32N 37°36' E 122°40'10 9.6
2014-Jul-13 18:29N 37°30' E 122°49'9 9.2
2014-Jul-13 17:30N 37°21' E 122°52'9 9.2
2014-Jul-13 16:33N 37°12' E 122°52'14 9.4
2014-Jul-13 15:04N 36°58' E 122°50'611.0
2014-Jul-13 14:33N 36°54' E 122°45'1111.1
2014-Jul-13 13:33N 36°46' E 122°35'1312.8
2014-Jul-13 12:33N 36°37' E 122°24'14212.4
2014-Jul-13 01:04N 34°56' E 120°21'2212.2
2014-Jul-12 23:15N 34°41' E 120°02'  
Track history (hours):
 
Tides and Currents Weather Stations Pressure Air Temp Water Temp Dewpoint Dewpoint Depression Visibility Wind Speed Wind Dir Waves Ship Positions

An Run Da 2

Last reported at 2014-Jul-22 18:30 UTC. Time now 2014-Jul-22 19:35 UTC.
Position N 31°06' E 121°28'.

Length 147 m; draft 8.5 m.

Type: Cargo ship. MMSI: 413360230.

Date/timePositionNaut miles runAvg speedWind from/ knotsBaromVisibWave heightAir tempDewpointWater temp
2014-Jul-22 18:30N 31°06' E 121°28'2 1.9
2014-Jul-22 17:33N 31°07' E 121°28'4 4.3
2014-Jul-22 16:32N 31°12' E 121°29'5 5.2
2014-Jul-22 15:33N 31°16' E 121°33'6 5.6
2014-Jul-22 14:33N 31°21' E 121°31'3 3.1
2014-Jul-22 13:33N 31°24' E 121°33'6 6.3
2014-Jul-22 12:33N 31°21' E 121°40'8 8.4
2014-Jul-22 11:33N 31°17' E 121°49'333 6.7
2014-Jul-20 10:16N 36°47' E 122°45'811.0
2014-Jul-20 09:33N 36°54' E 122°45'1111.0
2014-Jul-20 08:33N 37°05' E 122°46'28 9.3
2014-Jul-20 05:31N 37°33' E 122°38'9 9.4
2014-Jul-20 04:33N 37°36' E 122°27'10 9.6
2014-Jul-20 03:33N 37°39' E 122°16'10 9.8
2014-Jul-20 02:33N 37°42' E 122°04'1010.1
2014-Jul-20 01:33N 37°45' E 121°52'1010.2
2014-Jul-20 00:33N 37°48' E 121°40'1010.0
2014-Jul-19 23:33N 37°51' E 121°28'  
2014-Jul-17 09:29N 38°26' E 118°11'7 0.2
2014-Jul-15 10:10N 38°29' E 118°20'146 4.4
2014-Jul-14 01:15N 37°54' E 121°20'811.8
2014-Jul-14 00:33N 37°52' E 121°30'2411.7
2014-Jul-13 22:31N 37°46' E 121°59'1111.9
2014-Jul-13 21:33N 37°43' E 122°12'1211.7
2014-Jul-13 20:33N 37°40' E 122°27'1110.7
2014-Jul-13 19:32N 37°36' E 122°40'10 9.6
2014-Jul-13 18:29N 37°30' E 122°49'9 9.2
2014-Jul-13 17:30N 37°21' E 122°52'9 9.2
2014-Jul-13 16:33N 37°12' E 122°52'14 9.4
2014-Jul-13 15:04N 36°58' E 122°50'611.0
2014-Jul-13 14:33N 36°54' E 122°45'1111.1
2014-Jul-13 13:33N 36°46' E 122°35'1312.8
2014-Jul-13 12:33N 36°37' E 122°24'14212.4
2014-Jul-13 01:04N 34°56' E 120°21'2212.2
2014-Jul-12 23:15N 34°41' E 120°02'  

Dump ship's entire track history